createdAt,value
2023-01-27T00:01:44.645Z,4.68
2023-01-27T00:04:26.919Z,6.35
2023-01-27T00:07:15.601Z,6.95
2023-01-27T00:09:58.866Z,5.88
2023-01-27T00:13:07.597Z,4.05
2023-01-27T00:15:49.842Z,9.65
2023-01-27T00:18:37.652Z,5.88
2023-01-27T00:21:43.602Z,7.07
2023-01-27T00:24:38.163Z,5.82
2023-01-27T00:27:27.582Z,4.75
2023-01-27T00:30:18.131Z,6.15
2023-01-27T00:33:16.605Z,5.80
2023-01-27T00:36:00.401Z,6.93
2023-01-27T00:38:50.636Z,5.45
2023-01-27T00:41:34.058Z,7.20
2023-01-27T00:44:23.612Z,6.40
2023-01-27T00:47:18.598Z,6.22
2023-01-27T00:50:00.560Z,5.63
2023-01-27T00:52:49.606Z,5.75
2023-01-27T00:55:31.620Z,6.82
2023-01-27T00:58:21.630Z,4.45
2023-01-27T01:01:07.970Z,8.00
2023-01-27T01:03:56.603Z,8.20
2023-01-27T01:06:39.576Z,5.78
2023-01-27T01:09:28.620Z,8.30
2023-01-27T01:12:12.517Z,6.95
2023-01-27T01:14:54.655Z,8.32
2023-01-27T01:17:45.619Z,6.72
2023-01-27T01:20:27.524Z,6.50
2023-01-27T01:23:16.658Z,7.13
2023-01-27T01:25:59.018Z,7.53
2023-01-27T01:28:47.617Z,8.73
2023-01-27T01:31:29.676Z,1.35
2023-01-27T01:34:20.654Z,4.85
2023-01-27T01:37:02.555Z,3.97
2023-01-27T01:39:51.640Z,3.95
2023-01-27T01:43:08.622Z,8.25
2023-01-27T01:45:53.851Z,8.55
2023-01-27T01:48:47.617Z,1.20
2023-01-27T01:51:36.269Z,7.78
2023-01-27T01:54:30.686Z,3.58
2023-01-27T01:57:17.240Z,8.00
2023-01-27T02:00:08.685Z,11.00
2023-01-27T02:02:54.770Z,3.13
2023-01-27T02:05:49.610Z,9.13
2023-01-27T02:08:40.086Z,7.32
2023-01-27T02:11:28.620Z,6.95
2023-01-27T02:14:19.611Z,7.20
2023-01-27T02:17:02.864Z,7.63
2023-01-27T02:20:01.630Z,5.90
2023-01-27T02:22:49.837Z,6.95
2023-01-27T02:25:46.673Z,6.22
2023-01-27T02:28:28.858Z,6.03
2023-01-27T02:31:16.822Z,6.35
2023-01-27T02:34:07.664Z,6.00
2023-01-27T02:36:53.974Z,4.95
2023-01-27T02:39:47.701Z,3.67
2023-01-27T02:42:31.033Z,2.80
2023-01-27T02:45:20.627Z,4.78
2023-01-27T02:48:02.715Z,8.88
2023-01-27T02:50:51.744Z,5.50
2023-01-27T02:53:35.223Z,6.55
2023-01-27T02:56:23.731Z,2.33
2023-01-27T02:59:08.042Z,6.50
2023-01-27T03:01:57.633Z,5.30
2023-01-27T03:04:39.924Z,6.13
2023-01-27T03:07:30.739Z,8.10
2023-01-27T03:10:19.627Z,4.55
2023-01-27T03:13:01.859Z,8.45
2023-01-27T03:16:14.503Z,5.82
2023-01-27T03:18:57.468Z,2.35
2023-01-27T03:21:44.645Z,7.28
2023-01-27T03:24:28.904Z,5.55
2023-01-27T03:27:20.728Z,5.63
2023-01-27T03:30:44.779Z,4.22
2023-01-27T03:33:33.539Z,4.30
2023-01-27T03:36:56.732Z,5.40
2023-01-27T03:39:57.183Z,6.25
2023-01-27T03:43:03.643Z,6.15
2023-01-27T03:46:07.188Z,4.40
2023-01-27T03:51:39.683Z,7.18
2023-01-27T03:54:28.636Z,5.75
2023-01-27T03:57:10.629Z,4.13
2023-01-27T03:59:59.678Z,4.65
2023-01-27T04:03:12.646Z,7.38
2023-01-27T04:06:13.533Z,8.75
2023-01-27T04:09:01.664Z,7.00
2023-01-27T04:12:02.011Z,6.28
2023-01-27T04:14:49.643Z,5.25
2023-01-27T04:17:38.838Z,5.60
2023-01-27T04:20:27.668Z,3.70
2023-01-27T04:23:10.834Z,6.90
2023-01-27T04:26:00.655Z,6.35
2023-01-27T04:28:55.657Z,7.93
2023-01-27T04:31:43.803Z,8.38
2023-01-27T04:34:25.949Z,7.68
2023-01-27T04:37:15.681Z,7.30
2023-01-27T04:39:58.905Z,6.28
2023-01-27T04:42:47.717Z,8.43
2023-01-27T04:45:30.137Z,8.02
2023-01-27T04:48:18.738Z,7.88
2023-01-27T04:51:01.000Z,9.95
2023-01-27T04:53:50.750Z,7.25
2023-01-27T04:56:43.744Z,6.25
2023-01-27T04:59:26.655Z,7.15
2023-01-27T05:02:15.789Z,5.40
2023-01-27T05:04:58.071Z,5.35
2023-01-27T05:07:46.666Z,4.80
2023-01-27T05:10:28.683Z,5.60
2023-01-27T05:13:18.684Z,8.73
2023-01-27T05:16:09.047Z,6.00
2023-01-27T05:18:58.761Z,4.15
2023-01-27T05:21:40.623Z,4.43
2023-01-27T05:24:29.815Z,4.18
2023-01-27T05:27:17.721Z,8.93
2023-01-27T05:30:14.670Z,5.72
2023-01-27T05:33:02.674Z,5.93
2023-01-27T05:35:45.001Z,7.80
2023-01-27T05:38:33.691Z,7.45
2023-01-27T05:41:18.016Z,10.75
2023-01-27T05:44:06.690Z,7.20
2023-01-27T05:46:51.018Z,5.43
2023-01-27T05:49:38.682Z,7.22
2023-01-27T05:52:27.766Z,8.98
2023-01-27T05:55:10.069Z,7.43
2023-01-27T05:57:58.753Z,9.55
2023-01-27T06:00:40.840Z,7.38
2023-01-27T06:03:30.688Z,5.05
2023-01-27T06:06:14.004Z,9.73
2023-01-27T06:09:02.815Z,4.63
2023-01-27T06:11:44.697Z,7.43
2023-01-27T06:14:33.687Z,9.98
2023-01-27T06:17:22.716Z,10.02
2023-01-27T06:20:05.919Z,7.50
2023-01-27T06:22:53.696Z,10.82
2023-01-27T06:25:35.987Z,7.40
2023-01-27T06:28:29.443Z,9.05
2023-01-27T06:31:20.185Z,7.25
2023-01-27T06:34:01.713Z,9.35
2023-01-27T06:36:45.137Z,11.73
2023-01-27T06:39:33.848Z,7.45
2023-01-27T06:42:28.724Z,7.65
2023-01-27T06:45:11.778Z,9.80
2023-01-27T06:48:08.863Z,10.60
2023-01-27T06:50:50.887Z,10.85
2023-01-27T06:53:41.765Z,11.90
2023-01-27T06:56:23.835Z,10.40
2023-01-27T06:59:12.774Z,11.20
2023-01-27T07:01:54.770Z,11.10
2023-01-27T07:04:43.709Z,10.45
2023-01-27T07:07:32.764Z,15.55
2023-01-27T07:10:18.157Z,12.48
2023-01-27T07:13:12.820Z,9.60
2023-01-27T07:15:55.053Z,12.50
2023-01-27T07:18:43.703Z,12.32
2023-01-27T07:21:27.084Z,11.82
2023-01-27T07:24:15.713Z,9.93
2023-01-27T07:26:58.948Z,12.50
2023-01-27T07:29:46.708Z,10.93
2023-01-27T07:32:28.939Z,15.68
2023-01-27T07:35:17.792Z,18.95
2023-01-27T07:38:06.705Z,12.32
2023-01-27T07:40:48.810Z,9.80
2023-01-27T07:43:38.707Z,10.43
2023-01-27T07:46:22.833Z,12.80
2023-01-27T07:49:11.802Z,14.73
2023-01-27T07:51:54.226Z,11.65
2023-01-27T07:54:42.716Z,12.00
2023-01-27T07:57:24.673Z,11.55
2023-01-27T08:00:14.981Z,11.13
2023-01-27T08:03:03.775Z,13.77
2023-01-27T08:05:46.053Z,11.32
2023-01-27T08:08:33.753Z,14.57
2023-01-27T08:11:16.952Z,12.50
2023-01-27T08:14:04.829Z,17.10
2023-01-27T08:16:48.018Z,12.55
2023-01-27T08:19:35.737Z,11.88
2023-01-27T08:22:24.120Z,14.80
2023-01-27T08:25:12.749Z,15.20
2023-01-27T08:27:57.932Z,13.65
2023-01-27T08:30:52.759Z,14.45
2023-01-27T08:33:43.772Z,14.23
2023-01-27T08:36:27.005Z,10.25
2023-01-27T08:39:15.737Z,10.95
2023-01-27T08:41:57.953Z,11.65
2023-01-27T08:44:46.738Z,12.32
2023-01-27T08:47:28.914Z,11.93
2023-01-27T08:50:19.786Z,9.73
2023-01-27T08:53:01.989Z,11.48
2023-01-27T08:55:50.716Z,12.98
2023-01-27T08:58:39.820Z,9.52
2023-01-27T09:01:22.380Z,11.65
2023-01-27T09:04:10.808Z,10.82
2023-01-27T09:06:58.330Z,9.40
2023-01-27T09:09:46.822Z,10.55
2023-01-27T09:12:28.786Z,10.88
2023-01-27T09:15:17.832Z,12.32
2023-01-27T09:17:59.731Z,10.65
2023-01-27T09:20:48.751Z,9.65
2023-01-27T09:23:38.786Z,11.23
2023-01-27T09:26:21.057Z,10.02
2023-01-27T09:29:08.729Z,12.25
2023-01-27T09:31:51.058Z,10.52
2023-01-27T09:34:39.780Z,10.88
2023-01-27T09:37:23.214Z,12.15
2023-01-27T09:40:19.748Z,9.65
2023-01-27T09:46:25.903Z,11.23
2023-01-27T09:49:31.769Z,11.50
2023-01-27T09:52:47.298Z,10.80
2023-01-27T09:55:50.861Z,9.20
2023-01-27T09:58:48.996Z,7.45
2023-01-27T10:01:38.917Z,9.40
2023-01-27T10:04:49.713Z,8.25
2023-01-27T10:07:57.893Z,8.20
2023-01-27T10:10:50.110Z,8.63
2023-01-27T10:13:41.988Z,9.63
2023-01-27T10:16:49.844Z,8.13
2023-01-27T10:19:46.424Z,9.20
2023-01-27T10:22:42.890Z,8.48
2023-01-27T10:28:26.803Z,10.02
2023-01-27T10:31:23.857Z,9.07
2023-01-27T10:34:19.841Z,7.70
2023-01-27T10:37:14.649Z,7.50
2023-01-27T10:40:08.747Z,7.20
2023-01-27T10:43:02.214Z,8.27
2023-01-27T10:45:55.810Z,7.43
2023-01-27T10:48:44.609Z,7.68
2023-01-27T10:51:39.797Z,6.78
2023-01-27T10:54:28.298Z,6.22
2023-01-27T10:57:21.800Z,11.20
2023-01-27T11:00:41.922Z,7.90
2023-01-27T11:03:19.121Z,7.28
2023-01-27T11:06:10.758Z,6.75
2023-01-27T11:08:56.987Z,6.57
2023-01-27T11:11:55.823Z,6.50
2023-01-27T11:14:46.169Z,6.70
2023-01-27T11:17:42.774Z,8.35
2023-01-27T11:20:30.779Z,7.90
2023-01-27T11:23:27.822Z,7.28
2023-01-27T11:26:25.791Z,7.65
2023-01-27T11:29:21.052Z,4.20
2023-01-27T11:32:15.932Z,5.05
2023-01-27T11:35:12.132Z,4.35
2023-01-27T11:38:14.877Z,5.10
2023-01-27T11:46:32.476Z,4.80
2023-01-27T11:49:24.866Z,4.38
2023-01-27T11:52:09.980Z,4.72
2023-01-27T11:55:02.887Z,3.80
2023-01-27T11:57:51.047Z,5.25
2023-01-27T12:00:48.893Z,4.47
2023-01-27T12:03:36.502Z,4.85
2023-01-27T12:06:32.816Z,3.97
2023-01-27T12:09:21.876Z,4.07
2023-01-27T12:12:27.535Z,3.97
2023-01-27T12:15:18.798Z,4.75
2023-01-27T12:18:03.445Z,5.63
2023-01-27T12:20:53.952Z,4.65
2023-01-27T12:23:39.293Z,7.57
2023-01-27T12:26:27.907Z,4.47
2023-01-27T12:29:32.881Z,4.78
2023-01-27T12:32:24.817Z,5.32
2023-01-27T12:35:07.072Z,4.75
2023-01-27T12:37:57.808Z,7.45
2023-01-27T12:40:48.854Z,5.03
2023-01-27T12:43:30.834Z,5.22
2023-01-27T12:46:37.855Z,4.07
2023-01-27T12:49:22.635Z,4.55
2023-01-27T12:52:15.867Z,4.28
2023-01-27T12:54:57.889Z,6.18
2023-01-27T12:57:47.840Z,5.00
2023-01-27T13:00:30.559Z,3.40
2023-01-27T13:03:25.859Z,6.10
2023-01-27T13:06:15.959Z,5.32
2023-01-27T13:09:00.136Z,4.82
2023-01-27T13:11:48.874Z,5.68
2023-01-27T13:14:31.117Z,4.22
2023-01-27T13:17:43.820Z,8.27
2023-01-27T13:20:30.127Z,4.93
2023-01-27T13:23:25.865Z,8.55
2023-01-27T13:26:17.130Z,4.57
2023-01-27T13:29:09.855Z,3.95
2023-01-27T13:32:04.171Z,5.95
2023-01-27T13:34:48.845Z,3.72
2023-01-27T13:37:36.157Z,4.88
2023-01-27T13:40:33.833Z,4.63
2023-01-27T13:43:23.696Z,3.80
2023-01-27T13:46:22.029Z,4.70
2023-01-27T13:49:20.826Z,3.80
2023-01-27T13:52:03.060Z,6.03
2023-01-27T13:54:52.839Z,5.43
2023-01-27T13:57:51.048Z,5.80
2023-01-27T14:00:45.827Z,6.47
2023-01-27T14:03:46.108Z,9.70
2023-01-27T14:06:49.983Z,4.72
2023-01-27T14:09:40.795Z,4.22
2023-01-27T14:12:43.933Z,5.78
2023-01-27T14:15:34.089Z,3.40
2023-01-27T14:18:24.923Z,4.38
2023-01-27T14:21:40.003Z,5.97
2023-01-27T14:24:34.180Z,5.65
2023-01-27T14:27:37.968Z,4.32
2023-01-27T14:30:39.861Z,3.70
2023-01-27T14:33:42.937Z,5.40
2023-01-27T14:39:27.891Z,6.40
2023-01-27T14:42:17.081Z,5.75
2023-01-27T14:45:10.838Z,4.05
2023-01-27T14:48:04.197Z,3.90
2023-01-27T14:50:59.979Z,5.93
2023-01-27T14:54:00.889Z,4.20
2023-01-27T14:56:51.426Z,4.07
2023-01-27T14:59:51.863Z,4.43
2023-01-27T15:02:45.214Z,4.38
2023-01-27T15:05:43.860Z,5.15
2023-01-27T15:08:34.887Z,4.22
2023-01-27T15:14:43.531Z,3.67
2023-01-27T15:17:47.904Z,4.10
2023-01-27T15:21:00.956Z,3.40
2023-01-27T15:24:02.138Z,6.30
2023-01-27T15:26:55.968Z,3.90
2023-01-27T15:29:51.963Z,4.43
2023-01-27T15:32:43.955Z,4.38
2023-01-27T15:35:51.215Z,6.20
2023-01-27T15:38:42.930Z,4.78
2023-01-27T15:41:25.166Z,5.10
2023-01-27T15:44:23.910Z,5.22
2023-01-27T15:47:16.075Z,4.07
2023-01-27T15:50:20.852Z,5.82
2023-01-27T15:53:10.080Z,5.03
2023-01-27T15:56:00.986Z,5.60
2023-01-27T15:58:53.900Z,6.85
2023-01-27T16:01:37.265Z,5.95
2023-01-27T16:04:33.116Z,4.95
2023-01-27T16:07:26.072Z,6.78
2023-01-27T16:10:16.914Z,5.25
2023-01-27T16:13:16.015Z,6.57
2023-01-27T16:16:35.980Z,5.70
2023-01-27T16:19:23.821Z,7.13
2023-01-27T16:22:17.881Z,3.90
2023-01-27T16:25:19.864Z,7.40
2023-01-27T16:28:08.127Z,6.45
2023-01-27T16:31:15.960Z,5.30
2023-01-27T16:34:00.997Z,5.10
2023-01-27T16:39:43.115Z,5.30
2023-01-27T16:42:33.942Z,7.03
2023-01-27T16:45:27.907Z,6.60
2023-01-27T16:48:12.136Z,6.57
2023-01-27T16:51:01.945Z,7.22
2023-01-27T16:53:44.143Z,6.18
2023-01-27T16:56:34.998Z,7.30
2023-01-27T16:59:29.164Z,6.10
2023-01-27T17:02:27.951Z,6.75
2023-01-27T17:05:14.532Z,5.45
2023-01-27T17:08:23.886Z,7.00
2023-01-27T17:14:02.770Z,5.40
2023-01-27T17:16:57.000Z,5.22
2023-01-27T17:19:39.150Z,7.55
2023-01-27T17:22:35.937Z,6.57
2023-01-27T17:25:31.198Z,3.95
2023-01-27T17:28:18.944Z,5.93
2023-01-27T17:31:19.024Z,4.85
2023-01-27T17:34:09.911Z,8.27
2023-01-27T17:37:13.155Z,7.05
2023-01-27T17:45:38.991Z,5.47
2023-01-27T17:48:21.222Z,7.05
2023-01-27T17:51:10.952Z,6.38
2023-01-27T17:53:53.165Z,9.65
2023-01-27T17:56:41.896Z,6.85
2023-01-27T17:59:34.898Z,7.28
2023-01-27T18:02:24.821Z,6.05
2023-01-27T18:05:17.909Z,6.22
2023-01-27T18:08:03.833Z,8.93
2023-01-27T18:10:53.941Z,7.10
2023-01-27T18:13:38.293Z,8.25
2023-01-27T18:16:28.910Z,7.70
2023-01-27T18:19:23.702Z,7.18
2023-01-27T18:22:33.907Z,6.00
2023-01-27T18:25:26.973Z,6.20
2023-01-27T18:28:09.115Z,5.75
2023-01-27T18:30:59.044Z,6.13
2023-01-27T18:33:42.984Z,7.40
2023-01-27T18:36:40.019Z,7.03
2023-01-27T18:39:42.124Z,6.88
2023-01-27T18:42:33.970Z,7.53
2023-01-27T18:45:26.923Z,6.47
2023-01-27T18:48:11.369Z,6.80
2023-01-27T18:51:00.931Z,7.80
2023-01-27T18:53:43.417Z,8.75
2023-01-27T18:56:31.962Z,6.20
2023-01-27T18:59:15.349Z,8.00
2023-01-27T19:02:03.944Z,7.47
2023-01-27T19:04:46.298Z,9.18
2023-01-27T19:07:34.926Z,8.27
2023-01-27T19:10:19.342Z,7.25
2023-01-27T19:13:07.942Z,8.25
2023-01-27T19:15:53.815Z,8.32
2023-01-27T19:18:45.928Z,7.85
2023-01-27T19:21:34.959Z,9.27
2023-01-27T19:24:18.280Z,8.38
2023-01-27T19:27:06.948Z,9.38
2023-01-27T19:29:49.332Z,8.15
2023-01-27T19:32:38.947Z,7.53
2023-01-27T19:35:21.206Z,6.90
2023-01-27T19:38:11.914Z,9.15
2023-01-27T19:40:57.435Z,8.48
2023-01-27T19:43:47.946Z,9.35
2023-01-27T19:46:31.316Z,9.10
2023-01-27T19:49:24.072Z,10.43
2023-01-27T19:52:12.950Z,12.30
2023-01-27T19:54:56.765Z,7.97
2023-01-27T19:57:45.014Z,11.43
2023-01-27T20:00:29.861Z,9.02
2023-01-27T20:03:19.032Z,9.23
2023-01-27T20:06:07.373Z,9.18
2023-01-27T20:08:56.186Z,7.60
2023-01-27T20:11:39.408Z,8.93
2023-01-27T20:14:32.125Z,7.55
2023-01-27T20:17:20.963Z,9.15
2023-01-27T20:20:03.234Z,7.07
2023-01-27T20:22:52.929Z,8.23
2023-01-27T20:25:36.204Z,10.63
2023-01-27T20:28:25.023Z,9.82
2023-01-27T20:31:07.207Z,8.95
2023-01-27T20:33:58.057Z,8.40
2023-01-27T20:36:40.272Z,8.90
2023-01-27T20:39:30.015Z,8.70
2023-01-27T20:42:12.239Z,8.23
2023-01-27T20:45:00.934Z,7.90
2023-01-27T20:47:50.011Z,9.38
2023-01-27T20:50:31.912Z,9.23
2023-01-27T20:53:20.949Z,9.88
2023-01-27T20:56:04.970Z,7.05
2023-01-27T20:58:53.956Z,8.70
2023-01-27T21:01:36.917Z,8.00
2023-01-27T21:04:25.960Z,7.32
2023-01-27T21:07:08.557Z,7.50
2023-01-27T21:09:56.943Z,8.55
2023-01-27T21:12:47.023Z,7.05
2023-01-27T21:15:29.204Z,6.38
2023-01-27T21:18:19.052Z,7.07
2023-01-27T21:21:06.970Z,6.30
2023-01-27T21:23:55.990Z,10.10
2023-01-27T21:26:43.080Z,7.10
2023-01-27T21:29:32.960Z,6.97
2023-01-27T21:32:21.271Z,6.25
2023-01-27T21:35:05.010Z,5.70
2023-01-27T21:37:59.937Z,6.72
2023-01-27T21:40:41.892Z,7.10
2023-01-27T21:43:48.100Z,7.68
2023-01-27T21:46:31.837Z,6.90
2023-01-27T21:49:20.941Z,6.97
2023-01-27T21:52:02.763Z,6.35
2023-01-27T21:54:50.963Z,7.15
2023-01-27T21:57:33.326Z,7.75
2023-01-27T22:00:24.960Z,7.70
2023-01-27T22:03:08.500Z,9.00
2023-01-27T22:05:49.977Z,8.70
2023-01-27T22:08:38.966Z,6.85
2023-01-27T22:11:21.162Z,8.35
2023-01-27T22:14:09.965Z,6.18
2023-01-27T22:16:52.306Z,7.93
2023-01-27T22:19:42.959Z,6.95
2023-01-27T22:22:25.028Z,6.75
2023-01-27T22:25:14.294Z,6.57
2023-01-27T22:27:56.364Z,7.70
2023-01-27T22:30:45.997Z,5.93
2023-01-27T22:33:35.037Z,7.07
2023-01-27T22:36:19.307Z,5.43
2023-01-27T22:39:08.055Z,9.38
2023-01-27T22:41:50.858Z,7.47
2023-01-27T22:44:39.074Z,7.85
2023-01-27T22:47:21.265Z,8.30
2023-01-27T22:50:08.983Z,7.72
2023-01-27T22:52:53.304Z,9.25
2023-01-27T22:55:41.966Z,9.77
2023-01-27T22:58:24.874Z,8.10
2023-01-27T23:01:14.068Z,9.13
2023-01-27T23:04:03.039Z,8.88
2023-01-27T23:06:48.444Z,9.40
2023-01-27T23:09:39.116Z,10.73
2023-01-27T23:15:10.084Z,10.85
2023-01-27T23:17:52.073Z,7.57
2023-01-27T23:20:41.040Z,9.88
2023-01-27T23:23:23.841Z,9.82
2023-01-27T23:26:14.089Z,11.00
2023-01-27T23:28:57.388Z,11.45
2023-01-27T23:31:46.111Z,9.57
2023-01-27T23:34:37.161Z,12.13
2023-01-27T23:37:19.203Z,11.32
2023-01-27T23:40:09.989Z,11.82
2023-01-27T23:42:53.273Z,11.13
2023-01-27T23:45:41.973Z,10.68
2023-01-27T23:48:27.582Z,11.05
2023-01-27T23:51:16.996Z,11.27
2023-01-27T23:53:59.141Z,11.40
2023-01-27T23:56:47.061Z,10.38
2023-01-27T23:59:36.981Z,10.38
